Time;durP1;ratioP1;P1;durP2;ratioP2;P2;SDS_P1;SDS_P2;PMS_P1;PMS_P2;Temp;Humidity;BMP_temperature;BMP_pressure;BME280_temperature;BME280_humidity;BME280_pressure;Samples;Min_cycle;Max_cycle;Signal;HPM_P1;HPM_P2
2023/05/26 00:01:19;;;;;;;23.35;9.05;;;;;;;21.68;70.72;99953.45;1698193;83;21359;-83
2023/05/26 00:04:25;;;;;;;19.40;8.70;;;;;;;21.47;70.36;99945.38;1699515;84;21883;-82
2023/05/26 00:07:30;;;;;;;18.45;8.90;;;;;;;21.48;71.13;99944.83;1698208;84;21320;-82
2023/05/26 00:10:36;;;;;;;17.02;10.30;;;;;;;23.99;62.53;99944.08;1699488;84;21919;-83
2023/05/26 00:13:42;;;;;;;12.55;9.73;;;;;;;24.11;60.88;99951.67;1699595;84;21296;-83
2023/05/26 00:16:49;;;;;;;16.35;10.50;;;;;;;24.07;60.72;99958.92;1698200;84;21315;-82
2023/05/26 00:19:54;;;;;;;21.05;9.70;;;;;;;24.19;59.94;99955.90;1698291;84;21899;-82
2023/05/26 00:23:01;;;;;;;295.60;12.40;;;;;;;23.92;60.19;99950.48;1699648;84;22194;-82
2023/05/26 00:26:07;;;;;;;77.03;10.40;;;;;;;23.71;60.14;99964.36;1699282;84;21327;-82
2023/05/26 00:29:14;;;;;;;78.72;10.43;;;;;;;23.65;58.77;99962.63;1697209;84;21327;-82
2023/05/26 00:32:21;;;;;;;101.50;12.03;;;;;;;23.55;58.83;99951.95;1698473;84;21276;-82
2023/05/26 00:35:26;;;;;;;65.92;12.23;;;;;;;23.57;58.75;99957.56;1699105;83;21335;-82
2023/05/26 00:38:32;;;;;;;87.92;12.30;;;;;;;23.64;58.43;99958.73;1699346;84;21331;-82
2023/05/26 00:41:38;;;;;;;109.57;10.80;;;;;;;23.77;58.12;99958.80;1698955;84;21995;-82
2023/05/26 00:44:43;;;;;;;68.65;12.65;;;;;;;23.75;58.39;99955.42;1699626;84;21307;-83
2023/05/26 00:47:49;;;;;;;76.62;11.18;;;;;;;23.92;58.10;99963.89;1699526;84;21279;-82
2023/05/26 00:50:55;;;;;;;120.45;10.20;;;;;;;23.88;58.15;99965.55;1699040;84;21860;-81
2023/05/26 00:54:00;;;;;;;56.60;9.00;;;;;;;23.69;58.79;99959.59;1699588;84;21895;-82
2023/05/26 00:57:05;;;;;;;40.05;9.33;;;;;;;23.51;59.40;99960.02;1706381;82;21299;-82
2023/05/26 01:00:12;;;;;;;16.65;7.65;;;;;;;23.79;58.63;99956.56;1708954;84;21323;-82
2023/05/26 01:03:18;;;;;;;10.58;8.50;;;;;;;23.75;58.66;99952.63;1709920;84;21288;-82
2023/05/26 01:06:25;;;;;;;27.93;8.50;;;;;;;23.66;58.79;99949.52;1709179;82;21310;-82
2023/05/26 01:09:31;;;;;;;34.92;7.90;;;;;;;23.55;58.55;99951.95;1709250;84;21315;-81
2023/05/26 01:13:09;;;;;;;44.42;9.05;;;;;;;23.60;58.19;99954.20;1708579;84;21923;-82
2023/05/26 01:16:17;;;;;;;26.23;7.95;;;;;;;23.65;57.94;99949.23;1709468;82;21287;-82
2023/05/26 01:19:52;;;;;;;32.98;8.08;;;;;;;23.56;58.04;99952.22;1709935;84;21327;-81
2023/05/26 01:23:15;;;;;;;18.30;9.18;;;;;;;23.55;58.26;99945.80;1709836;84;21867;-82
2023/05/26 01:26:40;;;;;;;18.52;8.38;;;;;;;23.69;57.71;99948.42;1709998;84;21314;-82
2023/05/26 01:29:45;;;;;;;68.78;7.80;;;;;;;23.56;57.48;99938.27;1709491;84;21295;-82
2023/05/26 01:32:57;;;;;;;13.88;7.60;;;;;;;23.70;56.78;99945.91;1709913;84;21327;-82
2023/05/26 01:36:04;;;;;;;16.87;7.55;;;;;;;23.70;56.48;99938.92;1709698;82;21829;-82
2023/05/26 01:39:11;;;;;;;14.03;8.93;;;;;;;23.76;56.54;99928.65;1708445;84;21453;-81
2023/05/26 01:42:25;;;;;;;19.75;7.90;;;;;;;23.68;57.39;99924.97;1708886;83;21184;-82
2023/05/26 01:45:31;;;;;;;19.85;7.12;;;;;;;23.75;57.75;99925.55;1709882;82;21324;-82
2023/05/26 01:48:37;;;;;;;28.55;8.00;;;;;;;23.59;58.47;99928.80;1709795;84;21300;-82
2023/05/26 01:51:46;;;;;;;14.60;6.83;;;;;;;23.41;58.37;99936.23;1709363;84;21296;-82
2023/05/26 01:54:57;;;;;;;11.75;7.72;;;;;;;23.44;58.71;99942.13;1709836;84;21903;-82
2023/05/26 01:58:03;;;;;;;11.08;7.22;;;;;;;23.55;58.65;99940.22;1700718;84;21339;-82
2023/05/26 02:01:09;;;;;;;10.18;7.30;;;;;;;23.60;58.33;99937.45;1698285;84;21305;-82
2023/05/26 02:04:15;;;;;;;11.73;8.00;;;;;;;23.65;57.92;99946.45;1682343;84;21316;-82
2023/05/26 02:07:21;;;;;;;11.63;7.33;;;;;;;23.45;58.09;99950.77;1699052;84;21323;-81
2023/05/26 02:10:27;;;;;;;12.15;6.12;;;;;;;23.41;58.23;99958.00;1698206;84;21292;-81
2023/05/26 02:13:33;;;;;;;11.18;7.72;;;;;;;23.55;58.39;99952.78;1699564;84;21304;-81
2023/05/26 02:16:39;;;;;;;12.88;8.45;;;;;;;23.78;58.49;99959.08;1698890;83;21395;-80
2023/05/26 02:19:45;;;;;;;13.60;8.38;;;;;;;23.75;59.30;99954.87;1699608;84;21331;-82
2023/05/26 02:22:52;;;;;;;23.57;10.00;;;;;;;24.02;59.00;99956.11;1698603;84;21363;-82
2023/05/26 02:25:58;;;;;;;11.22;8.38;;;;;;;24.26;58.87;99944.45;1698234;84;21923;-82
2023/05/26 02:29:04;;;;;;;14.75;8.25;;;;;;;24.40;59.03;99942.83;1698202;84;21351;-81
2023/05/26 02:32:10;;;;;;;8.73;7.65;;;;;;;24.50;59.42;99941.45;1698190;83;21319;-82
2023/05/26 02:35:17;;;;;;;12.68;7.83;;;;;;;24.72;59.00;99936.45;1698201;84;21336;-82
2023/05/26 02:38:23;;;;;;;15.50;6.15;;;;;;;24.69;59.52;99936.16;1699264;84;21902;-82
2023/05/26 02:41:29;;;;;;;6.83;4.92;;;;;;;24.70;59.53;99936.43;1698308;83;21327;-82
2023/05/26 02:44:36;;;;;;;11.05;5.10;;;;;;;24.96;58.14;99936.72;1699570;84;21295;-82
2023/05/26 02:47:42;;;;;;;8.43;4.45;;;;;;;24.97;57.50;99941.19;1698204;84;21837;-82
2023/05/26 02:50:48;;;;;;;9.63;5.42;;;;;;;25.11;56.99;99943.46;1699122;83;21367;-83
2023/05/26 02:53:55;;;;;;;13.35;6.10;;;;;;;25.18;56.47;99942.06;1699512;84;21332;-83
2023/05/26 02:57:00;;;;;;;9.73;6.00;;;;;;;25.39;56.52;99942.02;1698643;84;21331;-83
2023/05/26 03:00:15;;;;;;;11.97;6.30;;;;;;;25.71;56.52;99948.09;1699536;84;21325;-82
2023/05/26 03:03:19;;;;;;;10.18;6.53;;;;;;;25.92;56.39;99948.03;1699557;84;21287;-82
2023/05/26 03:06:26;;;;;;;12.95;5.92;;;;;;;26.21;55.94;99944.00;1698198;83;21343;-82
2023/05/26 03:09:31;;;;;;;10.43;5.60;;;;;;;26.46;55.32;99945.27;1698241;84;21304;-82
2023/05/26 03:12:37;;;;;;;13.98;6.45;;;;;;;26.51;54.81;99952.80;1698394;84;21906;-81
2023/05/26 03:15:47;;;;;;;14.50;6.22;;;;;;;26.76;53.91;99958.22;1698250;83;21872;-81
2023/05/26 03:18:53;;;;;;;12.03;6.67;;;;;;;26.79;54.23;99958.22;1699457;84;21348;-82
2023/05/26 03:21:59;;;;;;;12.73;6.22;;;;;;;26.97;53.98;99958.92;1698247;84;21339;-83
2023/05/26 03:25:07;;;;;;;12.25;7.30;;;;;;;27.21;53.75;99956.77;1698280;84;21288;-82
2023/05/26 03:28:13;;;;;;;15.10;6.78;;;;;;;27.63;53.10;99949.03;1699673;84;21895;-81
2023/05/26 03:31:20;;;;;;;10.03;6.83;;;;;;;28.04;52.21;99949.95;1699006;84;21355;-82
2023/05/26 03:34:26;;;;;;;12.20;7.25;;;;;;;28.12;51.91;99950.70;1699500;84;21328;-82
2023/05/26 03:37:32;;;;;;;10.03;6.45;;;;;;;28.39;51.30;99952.06;1698300;84;21374;-82
2023/05/26 03:40:38;;;;;;;9.70;6.42;;;;;;;28.64;50.55;99940.41;1699639;83;21316;-82
2023/05/26 03:43:44;;;;;;;9.88;6.80;;;;;;;28.99;49.59;99946.66;1699475;84;21887;-82
2023/05/26 03:46:49;;;;;;;9.10;6.15;;;;;;;29.13;48.77;99958.80;1698875;84;21887;-83
2023/05/26 03:49:56;;;;;;;12.15;7.42;;;;;;;29.00;48.73;99957.59;1699520;84;21319;-82
2023/05/26 03:53:03;;;;;;;10.08;6.72;;;;;;;28.85;48.85;99952.20;1698402;84;21324;-82
2023/05/26 03:56:08;;;;;;;10.58;6.20;;;;;;;28.82;49.06;99951.97;1699231;84;21328;-81
2023/05/26 03:59:15;;;;;;;12.33;7.05;;;;;;;28.63;49.05;99946.36;1701669;84;21323;-81
2023/05/26 04:02:21;;;;;;;10.58;7.05;;;;;;;28.40;49.48;99946.13;1706182;84;21335;-81
2023/05/26 04:05:26;;;;;;;10.75;6.67;;;;;;;28.10;50.37;99947.94;1706035;84;21318;-81
2023/05/26 04:08:33;;;;;;;10.10;7.42;;;;;;;28.02;51.12;99941.00;1706192;84;21346;-81
2023/05/26 04:11:39;;;;;;;11.53;6.42;;;;;;;27.91;51.85;99940.30;1706592;84;21346;-82
2023/05/26 04:14:45;;;;;;;14.13;7.17;;;;;;;28.24;51.25;99939.86;1706088;84;21291;-82
2023/05/26 04:17:54;;;;;;;14.23;8.45;;;;;;;28.24;50.93;99942.67;1707257;84;21331;-82
2023/05/26 04:21:00;;;;;;;12.73;7.28;;;;;;;28.17;51.46;99941.36;1705874;84;21319;-82
2023/05/26 04:24:09;;;;;;;11.30;6.95;;;;;;;28.50;50.79;99945.13;1706429;84;21351;-81
2023/05/26 04:27:16;;;;;;;11.57;7.00;;;;;;;28.80;50.08;99942.44;1706283;84;21315;-81
2023/05/26 04:30:30;;;;;;;9.33;6.08;;;;;;;28.78;49.64;99947.52;1706736;84;21316;-81
2023/05/26 04:33:42;;;;;;;13.78;7.03;;;;;;;29.14;48.79;99945.55;1707346;84;21331;-82
2023/05/26 04:36:40;;;;;;;9.48;5.80;;;;;;;29.12;48.45;99950.63;1694875;84;21295;-82
2023/05/26 04:39:46;;;;;;;10.23;5.50;;;;;;;29.24;47.44;99946.19;1706648;84;21327;-82
2023/05/26 04:42:57;;;;;;;9.80;4.85;;;;;;;28.98;47.42;99947.23;1706581;84;21362;-83
2023/05/26 04:46:02;;;;;;;13.53;5.90;;;;;;;28.18;49.45;99952.87;1706031;84;21326;-83
2023/05/26 04:49:09;;;;;;;12.47;7.12;;;;;;;27.85;49.82;99952.72;1705990;84;21303;-82
2023/05/26 04:52:16;;;;;;;10.25;5.47;;;;;;;27.69;50.46;99952.05;1706301;84;21728;-82
2023/05/26 04:55:21;;;;;;;5.87;3.70;;;;;;;27.74;50.68;99953.42;1706398;84;21343;-81
2023/05/26 04:58:23;;;;;;;3.85;3.42;;;;;;;27.70;50.80;99947.26;1706289;84;21306;-83
2023/05/26 05:01:22;;;;;;;6.50;4.55;;;;;;;27.59;51.09;99950.77;1711902;82;21863;-82
2023/05/26 05:04:47;;;;;;;5.62;4.10;;;;;;;27.51;51.06;99954.21;1715166;83;21276;-82
2023/05/26 05:07:54;;;;;;;14.00;6.33;;;;;;;27.57;51.40;99971.30;1715440;83;21927;-83
2023/05/26 05:11:01;;;;;;;7.67;5.62;;;;;;;27.53;51.30;99967.98;1715157;82;21315;-82
2023/05/26 05:14:09;;;;;;;9.68;7.65;;;;;;;27.50;51.74;99972.20;1720801;82;22188;-82
2023/05/26 05:17:17;;;;;;;11.28;6.87;;;;;;;27.52;52.18;99969.92;1742086;82;21863;-83
2023/05/26 05:20:25;;;;;;;18.02;10.48;;;;;;;27.51;52.56;99972.47;1709872;82;21567;-81
2023/05/26 05:23:34;;;;;;;17.40;11.35;;;;;;;27.66;52.28;99971.47;1713286;83;21323;-82
2023/05/26 05:26:39;;;;;;;22.32;13.90;;;;;;;27.57;53.07;99984.48;1732246;82;21323;-82
2023/05/26 05:29:48;;;;;;;24.65;14.93;;;;;;;27.50;53.68;99975.02;1713059;82;21294;-82
2023/05/26 05:32:54;;;;;;;27.10;15.25;;;;;;;27.71;53.51;99968.09;1735100;82;21323;-82
2023/05/26 05:36:01;;;;;;;27.62;15.03;;;;;;;27.98;53.21;99974.48;1747832;81;21894;-82
2023/05/26 05:39:08;;;;;;;25.82;14.98;;;;;;;28.42;52.68;99973.94;1715407;83;21356;-82
2023/05/26 05:42:15;;;;;;;22.25;13.85;;;;;;;28.60;52.10;99964.67;1712754;82;21271;-82
2023/05/26 05:45:20;;;;;;;24.10;14.78;;;;;;;28.59;52.01;99965.81;1730133;81;21296;-81
2023/05/26 05:48:29;;;;;;;22.30;13.98;;;;;;;29.07;50.98;99965.63;1701692;81;21864;-83
2023/05/26 05:51:39;;;;;;;24.02;13.10;;;;;;;29.40;50.36;99975.48;1687459;82;21359;-82
2023/05/26 05:54:45;;;;;;;22.17;12.90;;;;;;;29.05;51.52;99965.70;1704682;82;21608;-82
2023/05/26 05:57:52;;;;;;;27.10;13.55;;;;;;;29.38;51.09;99968.76;1728159;81;21323;-82
2023/05/26 06:00:58;;;;;;;25.85;12.50;;;;;;;29.75;50.07;99969.21;1715108;81;21366;-82
2023/05/26 06:04:03;;;;;;;22.62;13.18;;;;;;;29.89;49.26;99966.39;1715456;81;21288;-82
2023/05/26 06:07:08;;;;;;;23.77;14.00;;;;;;;30.22;48.71;99971.37;1729987;81;21334;-82
2023/05/26 06:10:15;;;;;;;23.47;14.03;;;;;;;30.31;48.11;99963.58;1721613;81;21335;-81
2023/05/26 06:13:22;;;;;;;19.05;13.13;;;;;;;30.38;47.99;99963.97;1721551;82;21323;-81
2023/05/26 06:16:28;;;;;;;21.73;11.50;;;;;;;30.66;47.12;99964.73;1738649;82;21322;-81
2023/05/26 06:19:36;;;;;;;20.55;10.55;;;;;;;30.66;46.50;99962.73;1743950;82;21378;-81
2023/05/26 06:22:42;;;;;;;17.85;11.25;;;;;;;30.75;46.25;99963.69;1720193;83;21767;-81
2023/05/26 06:25:47;;;;;;;22.70;11.53;;;;;;;30.76;46.13;99962.52;1716870;81;21320;-81
2023/05/26 06:28:53;;;;;;;25.95;10.65;;;;;;;30.71;46.43;99965.47;1721383;83;21319;-81
2023/05/26 06:32:01;;;;;;;18.10;9.18;;;;;;;30.88;46.27;99962.55;1710089;83;21314;-82
2023/05/26 06:35:07;;;;;;;13.20;7.97;;;;;;;31.00;45.69;99962.79;1706112;81;21198;-82
2023/05/26 06:38:13;;;;;;;20.43;10.53;;;;;;;31.09;45.42;99973.58;1714926;81;21303;-81
2023/05/26 06:41:21;;;;;;;21.80;8.30;;;;;;;31.27;44.85;99972.57;1714664;81;21294;-81
2023/05/26 06:44:26;;;;;;;11.97;6.37;;;;;;;31.06;44.59;99975.65;1714892;82;21332;-83
2023/05/26 06:47:31;;;;;;;14.78;7.05;;;;;;;30.74;45.15;99977.55;1716002;81;21318;-83
2023/05/26 06:50:40;;;;;;;24.37;10.80;;;;;;;30.88;45.10;99985.97;1724393;81;21293;-82
2023/05/26 06:53:46;;;;;;;16.35;9.95;;;;;;;30.92;45.19;99989.83;1709596;83;21355;-82
2023/05/26 06:56:53;;;;;;;17.17;9.73;;;;;;;31.18;45.40;99990.00;1714952;81;21303;-82
2023/05/26 06:59:59;;;;;;;14.85;8.40;;;;;;;31.27;45.34;99985.86;1714681;81;21335;-83
2023/05/26 07:03:05;;;;;;;22.87;9.00;;;;;;;31.38;45.12;99980.19;1710267;81;21949;-82
2023/05/26 07:06:14;;;;;;;17.07;8.70;;;;;;;31.42;45.33;99983.21;1703720;82;21390;-82
2023/05/26 07:09:21;;;;;;;19.35;6.97;;;;;;;31.61;44.55;99987.22;1701078;82;21678;-82
2023/05/26 07:12:29;;;;;;;15.65;8.43;;;;;;;31.78;44.28;99995.22;1703506;82;21303;-83
2023/05/26 07:15:40;;;;;;;16.62;8.50;;;;;;;31.76;43.85;99996.69;1702946;82;21883;-83
2023/05/26 07:18:47;;;;;;;15.00;7.80;;;;;;;31.95;43.35;99997.91;1705758;82;21584;-84
2023/05/26 07:21:52;;;;;;;15.83;7.37;;;;;;;31.99;42.78;100003.14;1712777;82;21962;-82
2023/05/26 07:24:59;;;;;;;13.25;6.90;;;;;;;32.02;42.46;100009.57;1700873;82;21311;-82
2023/05/26 07:28:11;;;;;;;18.75;7.65;;;;;;;31.97;42.25;100001.23;1696814;82;21884;-82
2023/05/26 07:31:16;;;;;;;12.45;7.40;;;;;;;32.01;42.63;100009.33;1706104;82;21315;-82
2023/05/26 07:34:23;;;;;;;13.98;6.15;;;;;;;31.90;42.69;100005.09;1707176;82;21240;-83
2023/05/26 07:37:30;;;;;;;14.23;6.25;;;;;;;32.23;41.83;100006.97;1706288;82;21625;-83
2023/05/26 07:40:36;;;;;;;12.30;5.58;;;;;;;32.17;41.38;100012.53;1712965;82;21324;-83
2023/05/26 07:43:42;;;;;;;14.20;5.47;;;;;;;32.24;40.96;100001.00;1702398;84;21339;-82
2023/05/26 07:46:48;;;;;;;13.85;4.97;;;;;;;32.61;39.74;100009.24;1705081;83;21316;-82
2023/05/26 07:49:54;;;;;;;15.63;4.90;;;;;;;32.59;37.81;100011.59;1700669;83;21367;-82
2023/05/26 07:52:59;;;;;;;10.10;4.92;;;;;;;32.32;38.78;100013.48;1693735;83;21373;-81
2023/05/26 07:56:06;;;;;;;12.47;5.60;;;;;;;32.26;38.53;100020.47;1704663;82;22029;-81
2023/05/26 07:59:11;;;;;;;18.95;6.28;;;;;;;32.22;39.15;100014.63;1702854;83;21934;-81
2023/05/26 08:02:17;;;;;;;13.65;5.20;;;;;;;32.44;39.07;100012.31;1701725;82;21844;-82
2023/05/26 08:05:24;;;;;;;16.57;5.20;;;;;;;32.65;38.52;100025.83;1707036;82;21363;-82
2023/05/26 08:08:31;;;;;;;9.38;4.67;;;;;;;32.78;37.85;100024.27;1706961;82;21230;-82
2023/05/26 08:11:38;;;;;;;13.62;5.10;;;;;;;32.82;37.13;100024.44;1708723;82;21943;-81
2023/05/26 08:14:44;;;;;;;10.08;4.47;;;;;;;32.64;37.33;100016.50;1705643;83;21323;-82
2023/05/26 08:17:53;;;;;;;11.12;4.62;;;;;;;32.92;37.01;100014.22;1701769;84;21711;-83
2023/05/26 08:20:59;;;;;;;11.65;4.72;;;;;;;31.88;39.23;100020.16;1708776;83;21979;-83
2023/05/26 08:24:04;;;;;;;10.68;4.33;;;;;;;32.85;36.96;100011.05;1704447;82;21402;-83
2023/05/26 08:27:11;;;;;;;12.35;4.35;;;;;;;32.75;36.42;100010.79;1706624;83;21394;-82
2023/05/26 08:30:16;;;;;;;16.75;4.30;;;;;;;32.83;36.61;100002.86;1698541;82;21303;-82
2023/05/26 08:33:22;;;;;;;14.65;4.30;;;;;;;32.95;36.65;99998.58;1698100;83;21342;-82
2023/05/26 08:36:27;;;;;;;11.63;4.42;;;;;;;32.76;36.93;99987.55;1697107;82;21339;-82
2023/05/26 08:39:26;;;;;;;12.20;4.22;;;;;;;33.08;37.47;99986.24;1697327;82;21935;-82
2023/05/26 08:42:40;;;;;;;12.25;4.60;;;;;;;33.04;37.65;99982.41;1707330;82;21305;-83
2023/05/26 08:45:47;;;;;;;13.25;4.72;;;;;;;33.32;36.34;99973.78;1702922;82;21378;-83
2023/05/26 08:48:47;;;;;;;10.68;4.35;;;;;;;33.68;35.41;99975.95;1694825;84;21292;-83
2023/05/26 08:51:41;;;;;;;9.58;3.72;;;;;;;33.88;35.22;99970.11;1711450;82;21355;-82
2023/05/26 08:54:28;;;;;;;15.75;4.53;;;;;;;33.98;34.69;99964.11;1717982;83;22209;-82
2023/05/26 08:57:21;;;;;;;9.95;4.08;;;;;;;33.87;34.13;99962.78;1722140;83;21336;-82
2023/05/26 09:00:08;;;;;;;15.98;4.17;;;;;;;33.90;34.34;99970.62;1723015;83;21290;-82
2023/05/26 09:03:02;;;;;;;11.95;4.65;;;;;;;33.58;34.53;99961.56;1710219;83;21326;-82
2023/05/26 09:06:07;;;;;;;9.37;3.67;;;;;;;32.69;36.07;99946.14;1712789;83;21312;-83
2023/05/26 09:09:14;;;;;;;10.70;3.85;;;;;;;32.69;35.89;99941.31;1710178;83;21316;-83
2023/05/26 09:12:20;;;;;;;18.02;4.00;;;;;;;33.16;35.09;99942.05;1726775;81;21371;-83
2023/05/26 09:15:26;;;;;;;11.38;3.90;;;;;;;33.20;33.25;99939.63;1721673;83;21315;-83
2023/05/26 09:18:32;;;;;;;11.93;3.50;;;;;;;33.25;33.19;99939.44;1713825;82;21314;-84
2023/05/26 09:21:37;;;;;;;9.73;3.75;;;;;;;33.07;34.06;99930.73;1683684;84;21932;-83
2023/05/26 09:24:54;;;;;;;10.13;3.98;;;;;;;32.99;33.40;99924.52;1684133;85;21344;-82
2023/05/26 09:28:00;;;;;;;11.88;3.87;;;;;;;32.98;34.13;99922.27;1684632;85;21225;-83
2023/05/26 09:31:06;;;;;;;17.65;5.08;;;;;;;33.26;33.10;99920.44;1675807;83;21328;-83
2023/05/26 09:34:14;;;;;;;9.53;4.40;;;;;;;32.99;33.36;99918.84;1723684;83;21913;-83
2023/05/26 09:37:21;;;;;;;11.80;4.03;;;;;;;33.05;32.77;99914.08;1723941;83;21906;-83
2023/05/26 09:40:28;;;;;;;18.80;3.80;;;;;;;33.17;32.18;99904.90;1724228;83;21296;-83
2023/05/26 09:43:35;;;;;;;11.43;4.47;;;;;;;33.44;32.20;99915.58;1724373;83;21849;-82
2023/05/26 09:46:41;;;;;;;18.02;4.67;;;;;;;33.46;31.75;99906.17;1716744;83;21323;-83
2023/05/26 09:49:47;;;;;;;14.20;4.33;;;;;;;33.61;31.79;99902.77;1713581;84;21737;-83
2023/05/26 09:52:53;;;;;;;11.95;4.10;;;;;;;33.35;30.87;99895.73;1713342;84;21208;-82
2023/05/26 09:56:01;;;;;;;13.00;4.70;;;;;;;33.35;32.03;99894.91;1713058;82;21366;-83
2023/05/26 09:59:11;;;;;;;16.30;4.53;;;;;;;33.35;31.10;99904.83;1713219;84;21915;-83
2023/05/26 10:02:34;;;;;;;15.25;4.67;;;;;;;33.36;30.01;99898.84;1701479;82;21283;-83
2023/05/26 10:05:45;;;;;;;14.35;3.62;;;;;;;33.26;29.33;99895.76;1706839;82;21830;-83
2023/05/26 10:08:50;;;;;;;13.70;4.30;;;;;;;33.26;29.89;99898.59;1707207;84;21761;-82
2023/05/26 10:11:55;;;;;;;13.18;4.15;;;;;;;33.50;29.96;99894.37;1701580;83;21381;-83
2023/05/26 10:15:03;;;;;;;16.55;4.67;;;;;;;33.66;30.00;99900.33;1731207;83;21304;-83
2023/05/26 10:18:09;;;;;;;12.98;4.37;;;;;;;33.64;29.86;99889.30;1727693;82;21853;-83
2023/05/26 10:21:18;;;;;;;20.17;4.53;;;;;;;33.69;29.72;99880.64;1736093;82;21792;-83
2023/05/26 10:24:39;;;;;;;9.80;3.75;;;;;;;33.92;28.68;99887.41;1736686;82;21183;-84
2023/05/26 10:27:58;;;;;;;12.18;3.87;;;;;;;33.79;29.87;99890.77;1736088;82;21298;-84
2023/05/26 10:31:06;;;;;;;19.20;4.97;;;;;;;34.02;29.13;99891.33;1735902;82;21830;-84
2023/05/26 10:34:23;;;;;;;10.85;3.70;;;;;;;34.00;28.89;99880.89;1736825;82;21906;-84
2023/05/26 10:37:24;;;;;;;10.78;3.77;;;;;;;34.22;28.01;99880.58;1725313;82;21349;-84
2023/05/26 10:40:47;;;;;;;8.95;3.45;;;;;;;34.22;28.01;99880.58;1736952;82;21285;-83
2023/05/26 10:43:54;;;;;;;10.88;3.72;;;;;;;34.30;28.75;99877.41;1686984;82;21290;-84
2023/05/26 10:47:10;;;;;;;13.43;4.60;;;;;;;34.16;28.48;99874.88;1734990;81;21388;-84
2023/05/26 10:50:17;;;;;;;12.75;4.22;;;;;;;34.19;29.34;99867.07;1671850;86;21317;-84
2023/05/26 10:53:28;;;;;;;15.72;5.28;;;;;;;34.32;29.87;99856.03;1684027;85;21294;-84
2023/05/26 10:56:44;;;;;;;17.85;4.12;;;;;;;34.25;29.37;99866.27;1655171;86;21907;-84
2023/05/26 10:59:53;;;;;;;12.98;4.37;;;;;;;34.52;28.90;99863.50;1683624;85;21874;-85
2023/05/26 11:03:00;;;;;;;14.18;4.17;;;;;;;34.06;28.62;99854.80;1674304;85;21847;-84
2023/05/26 11:06:05;;;;;;;16.75;4.20;;;;;;;34.50;28.44;99843.98;1684691;85;21317;-83
2023/05/26 11:09:17;;;;;;;14.40;3.77;;;;;;;34.09;29.05;99841.95;1702338;84;21360;-83
2023/05/26 11:12:23;;;;;;;12.95;4.30;;;;;;;34.00;29.41;99844.02;1706370;84;21893;-83
2023/05/26 11:15:38;;;;;;;14.20;4.53;;;;;;;33.70;28.98;99848.86;1673333;86;21327;-83
2023/05/26 11:18:44;;;;;;;13.00;4.17;;;;;;;33.81;28.71;99850.94;1702183;84;21316;-82
2023/05/26 11:21:51;;;;;;;16.77;4.05;;;;;;;33.79;28.21;99850.47;1701443;84;21324;-82
2023/05/26 11:24:57;;;;;;;16.95;4.30;;;;;;;33.78;28.66;99843.14;1702764;84;21317;-82
2023/05/26 11:28:03;;;;;;;17.00;4.22;;;;;;;33.87;29.03;99847.31;1701299;84;21321;-82
2023/05/26 11:31:17;;;;;;;14.80;4.78;;;;;;;33.87;29.48;99842.23;1701305;84;21288;-82
2023/05/26 11:34:24;;;;;;;19.42;5.37;;;;;;;34.18;29.16;99838.45;1702658;84;21292;-82
2023/05/26 11:37:32;;;;;;;14.75;4.62;;;;;;;34.50;28.89;99834.64;1701486;84;21320;-82
2023/05/26 11:40:39;;;;;;;20.77;4.20;;;;;;;34.68;27.87;99834.72;1701300;84;21348;-82
2023/05/26 11:43:45;;;;;;;10.43;4.20;;;;;;;34.39;28.38;99832.76;1702583;84;21316;-83
2023/05/26 11:46:52;;;;;;;10.15;4.08;;;;;;;34.25;27.84;99823.14;1722230;82;21288;-83
2023/05/26 11:49:58;;;;;;;20.37;5.05;;;;;;;34.25;27.84;99823.14;1748164;82;21872;-82
2023/05/26 11:53:05;;;;;;;17.40;4.97;;;;;;;34.12;28.99;99823.41;1750786;82;21857;-82
2023/05/26 11:56:15;;;;;;;20.08;4.42;;;;;;;34.28;28.78;99818.77;1749483;82;21332;-83
2023/05/26 11:59:26;;;;;;;13.85;3.87;;;;;;;34.00;29.43;99822.14;1750237;82;21290;-83
2023/05/26 12:02:32;;;;;;;18.98;4.97;;;;;;;34.23;29.03;99818.37;1750674;82;21288;-84
2023/05/26 12:05:38;;;;;;;22.13;5.42;;;;;;;33.66;30.25;99820.94;1750763;82;21281;-83
2023/05/26 12:09:00;;;;;;;13.72;4.65;;;;;;;34.31;29.86;99827.42;1740160;82;21345;-83
2023/05/26 12:12:05;;;;;;;23.32;4.80;;;;;;;34.22;28.95;99821.58;1736314;82;21337;-83
2023/05/26 12:15:13;;;;;;;18.67;5.12;;;;;;;34.42;29.08;99818.47;1737674;82;21285;-83
2023/05/26 12:18:18;;;;;;;14.30;4.05;;;;;;;34.66;29.43;99817.77;1737490;82;21301;-83
2023/05/26 12:21:25;;;;;;;22.10;5.08;;;;;;;34.47;28.91;99819.70;1737047;82;21340;-83
2023/05/26 12:24:43;;;;;;;12.85;4.70;;;;;;;34.48;29.33;99808.59;1737650;82;21286;-83
2023/05/26 12:27:49;;;;;;;14.98;5.03;;;;;;;34.48;29.33;99808.59;1737584;82;21313;-82
2023/05/26 12:31:03;;;;;;;16.65;5.72;;;;;;;34.51;29.10;99819.26;1736274;82;21704;-82
2023/05/26 12:34:10;;;;;;;12.30;4.93;;;;;;;34.49;29.44;99820.17;1737670;82;21305;-83
2023/05/26 12:37:15;;;;;;;11.80;4.72;;;;;;;34.20;30.64;99820.48;1698441;83;21312;-83
2023/05/26 12:40:21;;;;;;;13.90;5.45;;;;;;;33.95;31.24;99820.10;1698304;83;21752;-83
2023/05/26 12:43:29;;;;;;;16.50;4.72;;;;;;;34.33;30.97;99823.63;1699408;84;21351;-82
2023/05/26 12:46:36;;;;;;;14.90;5.03;;;;;;;33.09;32.94;99827.84;1698674;83;21367;-83
2023/05/26 12:49:35;;;;;;;18.02;4.97;;;;;;;33.08;33.49;99821.93;1732020;82;21308;-83
2023/05/26 12:52:42;;;;;;;15.93;4.62;;;;;;;32.69;34.30;99820.98;1732847;83;21867;-83
2023/05/26 12:55:48;;;;;;;13.68;4.28;;;;;;;32.76;34.34;99818.48;1734185;83;21315;-83
2023/05/26 12:58:54;;;;;;;16.62;4.72;;;;;;;32.53;34.54;99822.69;1695680;83;21931;-83
2023/05/26 13:02:02;;;;;;;9.53;3.70;;;;;;;31.83;35.86;99828.03;1688548;83;21300;-83
2023/05/26 13:05:09;;;;;;;14.20;4.35;;;;;;;32.13;34.64;99827.05;1700914;83;21175;-83
2023/05/26 13:08:16;;;;;;;11.18;3.95;;;;;;;32.21;34.90;99823.99;1709461;84;21302;-83
2023/05/26 13:11:23;;;;;;;15.90;4.55;;;;;;;32.19;34.69;99822.92;1723087;83;21827;-83
2023/05/26 13:14:29;;;;;;;10.55;4.33;;;;;;;32.09;34.54;99815.32;1724183;83;21348;-83
2023/05/26 13:17:35;;;;;;;26.57;4.62;;;;;;;32.22;34.23;99815.75;1723313;83;21368;-83
2023/05/26 13:20:43;;;;;;;26.82;5.65;;;;;;;32.09;35.07;99821.84;1722950;83;21360;-82
2023/05/26 13:23:51;;;;;;;16.87;6.05;;;;;;;31.32;37.88;99825.27;1723361;82;21301;-82
2023/05/26 13:26:57;;;;;;;17.90;5.80;;;;;;;31.54;37.85;99833.67;1724060;83;21309;-82
2023/05/26 13:30:04;;;;;;;23.62;6.33;;;;;;;31.45;38.21;99832.80;1724536;83;21329;-83
2023/05/26 13:33:09;;;;;;;20.48;6.42;;;;;;;31.39;38.78;99836.95;1724398;83;21364;-82
2023/05/26 13:36:16;;;;;;;25.43;5.90;;;;;;;31.30;39.36;99838.32;1724437;83;21869;-82
2023/05/26 13:39:21;;;;;;;15.93;6.08;;;;;;;31.14;39.44;99842.69;1723620;83;21179;-82
2023/05/26 13:42:34;;;;;;;17.25;5.58;;;;;;;31.27;38.85;99843.20;1723478;83;21361;-82
2023/05/26 13:45:36;;;;;;;11.78;5.28;;;;;;;30.58;39.46;99837.91;1719907;83;21700;-82
2023/05/26 13:48:44;;;;;;;13.80;4.72;;;;;;;30.63;39.49;99832.71;1712189;84;21319;-82
2023/05/26 13:51:50;;;;;;;16.80;5.50;;;;;;;30.27;40.25;99828.81;1704382;81;21840;-82
2023/05/26 13:54:56;;;;;;;16.05;5.28;;;;;;;30.12;40.14;99831.97;1695510;84;21323;-83
2023/05/26 13:58:02;;;;;;;14.18;5.45;;;;;;;30.02;40.04;99837.85;1695547;84;21291;-83
2023/05/26 14:01:07;;;;;;;20.52;5.70;;;;;;;29.83;41.24;99841.36;1694487;84;21319;-82
2023/05/26 14:04:15;;;;;;;21.23;6.05;;;;;;;30.04;41.76;99852.45;1694319;84;21314;-82
2023/05/26 14:07:21;;;;;;;16.85;5.20;;;;;;;29.86;42.31;99859.06;1693735;83;21867;-82
2023/05/26 14:10:30;;;;;;;15.60;5.30;;;;;;;29.78;42.37;99859.22;1694759;84;22067;-83
2023/05/26 14:13:36;;;;;;;14.00;5.30;;;;;;;29.78;42.77;99864.31;1695476;84;21293;-83
2023/05/26 14:16:42;;;;;;;17.87;5.97;;;;;;;29.72;43.32;99859.91;1694118;84;21345;-82
2023/05/26 14:19:48;;;;;;;15.38;5.10;;;;;;;29.67;42.53;99861.42;1694541;84;21946;-82
2023/05/26 14:22:55;;;;;;;15.10;4.67;;;;;;;29.93;42.44;99856.66;1726883;83;21277;-83
2023/05/26 14:26:02;;;;;;;8.73;4.58;;;;;;;29.65;43.76;99860.09;1731527;83;21945;-83
2023/05/26 14:29:07;;;;;;;10.85;4.50;;;;;;;29.72;43.89;99859.91;1731689;83;21293;-83